Time;durP1;ratioP1;P1;durP2;ratioP2;P2;SDS_P1;SDS_P2;PMS_P1;PMS_P2;Temp;Humidity;BMP_temperature;BMP_pressure;BME280_temperature;BME280_humidity;BME280_pressure;Samples;Min_cycle;Max_cycle;Signal;HPM_P1;HPM_P2
2023/01/30 00:00:00;;;;;;;40.00;22.85;;;5.70;96.60;;;;;;6106531;23;20095;-86
2023/01/30 00:02:34;;;;;;;44.85;24.65;;;5.70;96.60;;;;;;6134838;23;20464;-89
2023/01/30 00:05:01;;;;;;;45.75;26.35;;;5.70;96.60;;;;;;6111739;23;20032;-89
2023/01/30 00:07:28;;;;;;;45.40;25.20;;;5.70;96.70;;;;;;6109710;23;20048;-89
2023/01/30 00:09:56;;;;;;;44.08;25.45;;;5.70;96.70;;;;;;6133649;23;20023;-88
2023/01/30 00:12:36;;;;;;;44.30;25.10;;;5.70;96.70;;;;;;6134077;23;20081;-90
2023/01/30 00:15:03;;;;;;;46.90;25.52;;;5.70;96.70;;;;;;6108346;23;20041;-89
2023/01/30 00:17:31;;;;;;;44.15;26.15;;;5.80;96.80;;;;;;6108306;23;20021;-88
2023/01/30 00:19:58;;;;;;;45.92;26.25;;;5.80;96.80;;;;;;6108457;23;20104;-88
2023/01/30 00:22:25;;;;;;;41.10;23.42;;;5.80;96.80;;;;;;6108272;23;20467;-89
2023/01/30 00:24:52;;;;;;;46.38;24.38;;;5.80;96.80;;;;;;6106755;23;20025;-88
2023/01/30 00:27:20;;;;;;;39.67;23.08;;;5.80;96.80;;;;;;6108953;23;20462;-89
2023/01/30 00:29:47;;;;;;;42.17;23.80;;;5.80;96.80;;;;;;6108743;23;20028;-89
2023/01/30 00:32:29;;;;;;;47.95;24.63;;;5.80;96.90;;;;;;6133174;23;20017;-89
2023/01/30 00:34:57;;;;;;;51.38;27.60;;;5.90;97.00;;;;;;6108565;23;20021;-89
2023/01/30 00:37:28;;;;;;;49.15;26.90;;;5.90;97.00;;;;;;6109809;23;20013;-89
2023/01/30 00:39:56;;;;;;;50.08;26.42;;;5.80;97.00;;;;;;6108728;23;20040;-90
2023/01/30 00:48:00;;;;;;;43.78;24.33;;;5.80;97.40;;;;;;6132394;23;20049;-89
2023/01/30 00:50:41;;;;;;;44.83;24.77;;;5.90;97.10;;;;;;6084238;23;20027;-89
2023/01/30 00:53:12;;;;;;;43.95;25.38;;;5.90;97.10;;;;;;6131829;23;20021;-89
2023/01/30 00:55:40;;;;;;;45.55;26.27;;;5.90;97.20;;;;;;6108821;23;20017;-89
2023/01/30 00:58:08;;;;;;;48.40;27.60;;;5.90;97.20;;;;;;6108396;23;20030;-89
2023/01/30 01:00:36;;;;;;;47.78;26.85;;;5.90;97.30;;;;;;6132702;23;20021;-89
2023/01/30 01:03:04;;;;;;;49.03;26.70;;;6.00;97.40;;;;;;6107762;23;20022;-89
2023/01/30 01:05:38;;;;;;;44.03;26.75;;;6.00;97.40;;;;;;6108865;23;20022;-89
2023/01/30 01:08:06;;;;;;;50.42;28.60;;;6.00;97.40;;;;;;6107522;23;20017;-89
2023/01/30 01:10:33;;;;;;;51.28;28.95;;;6.00;97.50;;;;;;6107298;23;20068;-88
2023/01/30 01:13:01;;;;;;;47.45;27.52;;;6.00;97.60;;;;;;6107569;23;20018;-89
2023/01/30 01:15:29;;;;;;;43.35;25.25;;;6.10;97.60;;;;;;6131603;23;20064;-89
2023/01/30 01:17:56;;;;;;;44.53;24.58;;;6.10;97.60;;;;;;6107949;23;20021;-89
2023/01/30 01:20:25;;;;;;;48.45;27.02;;;6.10;97.50;;;;;;6131978;23;20021;-89
2023/01/30 01:22:56;;;;;;;50.35;29.00;;;6.20;97.70;;;;;;6110941;23;20021;-89
2023/01/30 01:25:24;;;;;;;52.03;28.42;;;6.20;97.70;;;;;;6111341;23;20458;-88
2023/01/30 01:27:52;;;;;;;53.47;28.08;;;6.20;97.70;;;;;;6109969;23;20017;-89
2023/01/30 01:30:19;;;;;;;44.28;25.73;;;6.20;97.70;;;;;;6132694;23;20052;-89
2023/01/30 01:32:49;;;;;;;42.30;24.80;;;6.30;97.70;;;;;;6107788;23;20092;-89
2023/01/30 01:35:18;;;;;;;45.17;27.45;;;6.30;97.70;;;;;;6107703;23;20399;-89
2023/01/30 01:37:46;;;;;;;44.50;24.70;;;6.20;97.80;;;;;;6108340;23;20045;-89
2023/01/30 01:43:19;;;;;;;;;;;6.20;97.90;;;;;;6132196;23;20447;-89
2023/01/30 01:45:50;;;;;;;50.25;27.27;;;6.20;98.00;;;;;;6107787;23;19943;-89
2023/01/30 01:48:24;;;;;;;46.47;26.08;;;6.10;98.20;;;;;;6131690;23;20351;-89
2023/01/30 01:51:02;;;;;;;46.25;24.70;;;6.10;98.10;;;;;;6107360;23;20052;-89
2023/01/30 01:53:35;;;;;;;43.40;26.30;;;6.10;98.10;;;;;;6107370;23;20021;-89
2023/01/30 01:56:04;;;;;;;44.67;26.85;;;6.10;98.30;;;;;;6107623;23;20068;-89
2023/01/30 01:58:40;;;;;;;52.38;27.98;;;6.10;98.30;;;;;;6106785;23;20097;-89
2023/01/30 02:01:07;;;;;;;52.72;30.85;;;6.10;98.50;;;;;;6106404;23;20026;-89
2023/01/30 02:03:40;;;;;;;49.67;28.75;;;6.10;98.60;;;;;;6107271;23;20022;-89
2023/01/30 02:06:09;;;;;;;46.35;28.05;;;6.10;98.70;;;;;;6106139;23;20436;-89
2023/01/30 02:08:40;;;;;;;46.78;27.35;;;6.10;98.70;;;;;;6083203;23;20104;-90
2023/01/30 02:11:10;;;;;;;47.50;25.95;;;6.10;98.70;;;;;;6106810;23;20025;-90
2023/01/30 02:13:39;;;;;;;44.63;27.58;;;6.20;98.80;;;;;;6107661;23;20024;-89
2023/01/30 02:16:08;;;;;;;39.90;23.73;;;6.20;98.80;;;;;;6131538;23;20021;-90
2023/01/30 02:18:40;;;;;;;42.60;25.55;;;6.20;98.80;;;;;;6084018;23;20028;-90
2023/01/30 02:21:48;;;;;;;40.30;24.50;;;6.20;98.80;;;;;;6107205;23;20029;-90
2023/01/30 02:24:33;;;;;;;42.13;24.90;;;6.20;98.90;;;;;;6065899;23;20080;-89
2023/01/30 02:27:17;;;;;;;40.33;24.50;;;6.20;99.00;;;;;;6106986;23;20022;-90
2023/01/30 02:30:07;;;;;;;36.45;22.38;;;6.30;99.00;;;;;;6108749;23;20024;-90
2023/01/30 02:32:48;;;;;;;34.85;21.48;;;6.20;99.00;;;;;;6106912;23;20018;-90
2023/01/30 02:35:35;;;;;;;34.65;21.55;;;6.20;99.00;;;;;;6107206;23;20024;-91
2023/01/30 02:38:32;;;;;;;40.25;23.48;;;6.30;99.00;;;;;;6132991;23;20028;-90
2023/01/30 02:41:45;;;;;;;35.45;21.98;;;6.30;99.20;;;;;;6140363;23;20018;-92
2023/01/30 02:55:01;;;;;;;30.83;17.73;;;6.30;99.40;;;;;;6039937;23;20086;-94
2023/01/30 02:58:07;;;;;;;27.90;16.45;;;6.30;99.70;;;;;;5997103;23;20026;-92
2023/01/30 03:01:02;;;;;;;28.27;16.58;;;6.30;99.90;;;;;;6086028;23;20057;-93
2023/01/30 03:03:41;;;;;;;25.40;16.08;;;6.40;99.90;;;;;;6108490;23;20053;-93
2023/01/30 03:07:07;;;;;;;26.40;14.63;;;6.40;99.90;;;;;;6108296;23;20017;-94
2023/01/30 03:28:48;;;;;;;22.00;12.18;;;6.60;99.90;;;;;;5769270;24;20027;-92
2023/01/30 03:31:55;;;;;;;24.38;12.20;;;6.60;99.90;;;;;;5824823;24;20109;-92
2023/01/30 03:34:59;;;;;;;23.85;12.32;;;6.60;99.90;;;;;;5824334;24;20426;-92
2023/01/30 03:38:13;;;;;;;20.45;11.95;;;6.60;99.90;;;;;;5823771;24;20461;-91
2023/01/30 03:45:32;;;;;;;21.02;12.13;;;6.70;99.90;;;;;;5949380;24;20025;-91
2023/01/30 03:48:02;;;;;;;16.73;10.40;;;6.60;99.90;;;;;;5957132;24;20084;-89
2023/01/30 03:50:31;;;;;;;21.10;11.02;;;6.60;99.90;;;;;;5932649;24;20028;-89
2023/01/30 03:53:01;;;;;;;23.55;11.88;;;6.70;99.90;;;;;;6021297;23;20361;-88
2023/01/30 03:55:28;;;;;;;18.02;10.48;;;6.70;99.90;;;;;;6020748;23;20357;-87
2023/01/30 03:57:56;;;;;;;18.90;10.65;;;6.70;99.90;;;;;;6020570;23;20022;-87
2023/01/30 04:00:27;;;;;;;17.67;10.65;;;6.70;99.90;;;;;;6089741;23;20348;-87
2023/01/30 04:02:56;;;;;;;17.98;10.32;;;6.70;99.90;;;;;;6107971;23;20022;-87
2023/01/30 04:05:25;;;;;;;16.23;8.90;;;6.70;99.90;;;;;;6108213;23;20021;-87
2023/01/30 04:08:01;;;;;;;14.25;8.88;;;6.70;99.90;;;;;;6109039;23;20507;-87
2023/01/30 04:10:30;;;;;;;13.55;8.98;;;6.70;99.90;;;;;;6107248;23;20025;-87
2023/01/30 04:12:59;;;;;;;18.58;8.77;;;6.70;99.90;;;;;;6107779;23;20025;-87
2023/01/30 04:15:28;;;;;;;12.48;8.63;;;6.70;99.90;;;;;;6107845;23;20031;-87
2023/01/30 04:18:21;;;;;;;15.13;9.20;;;6.70;99.90;;;;;;6131126;23;20109;-86
2023/01/30 04:21:00;;;;;;;16.65;9.77;;;6.80;99.90;;;;;;6109050;23;20017;-87
2023/01/30 04:23:33;;;;;;;17.13;8.68;;;6.80;99.90;;;;;;6086205;23;20031;-87
2023/01/30 04:26:03;;;;;;;15.05;9.27;;;6.80;99.90;;;;;;6107328;23;20022;-87
2023/01/30 04:28:33;;;;;;;14.93;9.48;;;6.80;99.90;;;;;;6107668;23;20022;-87
2023/01/30 04:31:01;;;;;;;17.10;8.88;;;6.80;99.90;;;;;;6107172;23;20028;-87
2023/01/30 04:33:51;;;;;;;12.98;8.07;;;6.80;99.90;;;;;;6129896;23;20026;-91
2023/01/30 04:36:18;;;;;;;19.63;10.15;;;6.80;99.90;;;;;;6085420;23;20383;-92
2023/01/30 04:38:46;;;;;;;15.93;9.18;;;6.80;99.90;;;;;;6133109;23;20022;-92
2023/01/30 04:41:16;;;;;;;18.17;9.65;;;6.90;99.90;;;;;;6109014;23;20482;-92
2023/01/30 04:43:44;;;;;;;23.92;10.98;;;6.90;99.90;;;;;;6133458;23;20022;-92
2023/01/30 04:46:35;;;;;;;18.83;9.43;;;6.90;99.90;;;;;;6113431;23;20448;-92
2023/01/30 04:54:26;;;;;;;;;;;;;;;;;;;;;
2023/01/30 04:57:41;;;;;;;;;;;;;;;;;;;;;
2023/01/30 05:00:11;;;;;;;19.73;10.98;;;6.90;99.90;;;;;;6157858;23;20022;-95
2023/01/30 05:02:50;;;;;;;15.88;8.65;;;6.90;99.90;;;;;;6111427;23;20041;-94
2023/01/30 05:05:17;;;;;;;13.30;8.27;;;6.90;99.90;;;;;;6109039;23;20021;-94
2023/01/30 05:07:45;;;;;;;14.75;7.88;;;6.90;99.90;;;;;;6133490;23;20021;-93
2023/01/30 05:10:15;;;;;;;15.52;8.32;;;6.90;99.90;;;;;;6108914;23;20017;-94
2023/01/30 05:12:46;;;;;;;15.90;7.60;;;6.90;99.90;;;;;;6109349;23;20021;-93
2023/01/30 05:15:16;;;;;;;12.93;7.03;;;6.90;99.90;;;;;;6133520;23;20025;-93
2023/01/30 05:17:44;;;;;;;13.85;7.45;;;7.00;99.90;;;;;;6109243;23;20104;-93
2023/01/30 05:20:13;;;;;;;16.25;7.05;;;7.00;99.90;;;;;;6114088;23;20128;-92
2023/01/30 05:22:40;;;;;;;17.52;7.00;;;7.00;99.90;;;;;;6121177;23;20013;-93
2023/01/30 05:25:08;;;;;;;13.13;6.93;;;7.00;99.90;;;;;;6113309;23;20044;-92
2023/01/30 05:27:37;;;;;;;15.65;6.68;;;7.00;99.90;;;;;;6114934;23;20085;-92
2023/01/30 05:30:05;;;;;;;16.08;5.88;;;7.00;99.90;;;;;;6131072;23;20010;-91
2023/01/30 05:32:33;;;;;;;12.48;5.28;;;7.00;99.90;;;;;;6133139;23;19997;-93
2023/01/30 05:35:01;;;;;;;9.98;4.40;;;7.00;99.90;;;;;;6114530;23;20022;-94
2023/01/30 05:37:32;;;;;;;15.25;4.72;;;7.10;99.90;;;;;;6119642;23;20024;-92
2023/01/30 05:40:04;;;;;;;10.13;4.45;;;7.10;99.90;;;;;;6114871;23;20029;-89
2023/01/30 05:42:34;;;;;;;9.98;3.85;;;7.10;99.90;;;;;;6108487;23;20052;-89
2023/01/30 05:45:04;;;;;;;10.00;3.15;;;7.10;99.90;;;;;;6108423;23;20025;-89
2023/01/30 05:47:34;;;;;;;8.20;3.30;;;7.10;99.90;;;;;;6108184;23;20387;-89
2023/01/30 05:50:01;;;;;;;10.30;3.10;;;7.10;99.90;;;;;;6107546;23;20100;-89
2023/01/30 05:52:29;;;;;;;14.20;4.13;;;7.10;99.90;;;;;;6107091;23;20029;-88
2023/01/30 05:55:00;;;;;;;7.28;2.83;;;7.20;99.90;;;;;;6105962;23;20026;-89
2023/01/30 05:57:28;;;;;;;8.68;2.85;;;7.20;99.90;;;;;;6108030;23;20049;-89
2023/01/30 05:59:56;;;;;;;7.72;2.10;;;7.20;99.90;;;;;;6108321;23;20017;-92
2023/01/30 06:02:34;;;;;;;7.20;1.83;;;7.20;99.90;;;;;;6108413;23;20021;-93
2023/01/30 06:05:16;;;;;;;6.25;1.58;;;7.10;99.90;;;;;;6109398;23;20021;-92
2023/01/30 06:07:49;;;;;;;10.27;2.25;;;7.10;99.90;;;;;;6109647;23;20021;-94
2023/01/30 06:10:35;;;;;;;;;;;;;;;;;;;;;
2023/01/30 06:13:43;;;;;;;6.38;1.88;;;7.00;99.90;;;;;;6136733;23;20440;-93
2023/01/30 06:16:16;;;;;;;8.80;1.63;;;6.90;99.90;;;;;;6100847;23;20045;-94
2023/01/30 06:24:12;;;;;;;6.90;1.77;;;6.70;99.90;;;;;;6162597;23;20101;-93
2023/01/30 06:27:49;;;;;;;;;;;;;;;;;;;;;
2023/01/30 06:34:48;;;;;;;8.40;1.38;;;6.60;99.90;;;;;;5953286;24;20053;-90
2023/01/30 06:37:30;;;;;;;7.10;1.40;;;6.70;99.90;;;;;;5936353;24;20055;-91
2023/01/30 06:40:06;;;;;;;7.00;1.88;;;6.60;99.90;;;;;;5910982;24;20024;-89
2023/01/30 06:47:24;;;;;;;;;;;;;;;;;;;;;
2023/01/30 11:25:06;;;;;;;15.32;2.90;;;8.10;90.70;;;;;;5574228;22;17229658;-96
2023/01/30 11:27:43;;;;;;;10.10;1.40;;;8.20;89.80;;;;;;6287894;22;20019;-96
2023/01/30 11:30:56;;;;;;;9.68;2.08;;;8.20;89.50;;;;;;6266013;22;20023;-96
2023/01/30 11:33:34;;;;;;;10.45;2.63;;;8.30;90.00;;;;;;6264152;22;20023;-96
2023/01/30 11:36:22;;;;;;;10.40;2.03;;;8.30;89.40;;;;;;6265847;22;20023;-95
2023/01/30 11:39:02;;;;;;;10.45;1.77;;;8.40;89.20;;;;;;6261667;22;20020;-96
2023/01/30 11:47:04;;;;;;;15.13;2.05;;;8.50;87.80;;;;;;6225485;23;20035;-95
2023/01/30 11:50:27;;;;;;;11.23;1.42;;;8.50;87.30;;;;;;6228093;23;20025;-95
2023/01/30 12:05:50;;;;;;;9.98;1.88;;;8.70;82.90;;;;;;6339056;22;20279;-96
2023/01/30 12:08:25;;;;;;;12.68;2.00;;;8.80;83.10;;;;;;6290661;22;20026;-91
2023/01/30 12:11:48;;;;;;;8.05;1.25;;;8.80;82.40;;;;;;6299055;22;20022;-95
2023/01/30 12:33:14;;;;;;;8.70;1.17;;;8.70;80.10;;;;;;6187459;23;20019;-93
2023/01/30 12:36:33;;;;;;;;;;;;;;;;;;;;;
2023/01/30 12:52:48;;;;;;;12.20;2.25;;;8.80;81.80;;;;;;6161645;23;20419;-96
2023/01/30 13:00:47;;;;;;;;;;;;;;;;;;;;;
2023/01/30 13:04:54;;;;;;;7.22;1.38;;;8.90;80.80;;;;;;6183317;23;20032;-84
2023/01/30 13:08:48;;;;;;;10.75;1.73;;;8.90;80.80;;;;;;6159003;23;20025;-92
2023/01/30 13:11:45;;;;;;;9.77;1.65;;;8.90;80.20;;;;;;6158751;23;20009;-92
2023/01/30 13:14:22;;;;;;;8.52;1.08;;;8.80;80.80;;;;;;6161144;23;20071;-90
2023/01/30 13:37:12;;;;;;;13.95;2.97;;;8.60;80.80;;;;;;6335099;22;20026;-91
2023/01/30 13:41:07;;;;;;;12.32;2.78;;;8.50;80.50;;;;;;6172698;23;20041;-92
2023/01/30 13:56:39;;;;;;;9.98;2.20;;;8.50;80.50;;;;;;6347678;22;20088;-87
2023/01/30 13:59:41;;;;;;;8.73;1.50;;;8.50;81.30;;;;;;6290478;22;20023;-87
2023/01/30 14:02:22;;;;;;;9.40;1.88;;;8.50;81.70;;;;;;6313197;22;20061;-92
2023/01/30 14:05:04;;;;;;;14.70;2.28;;;8.50;81.60;;;;;;6314051;22;20026;-89
2023/01/30 14:08:10;;;;;;;9.52;2.55;;;8.50;81.10;;;;;;6312999;22;20063;-90
2023/01/30 14:10:38;;;;;;;9.27;1.83;;;8.60;81.40;;;;;;6286029;22;20101;-88
2023/01/30 14:13:18;;;;;;;9.90;1.85;;;8.50;81.40;;;;;;6287603;22;20018;-89
2023/01/30 14:16:00;;;;;;;16.73;2.80;;;8.50;81.70;;;;;;6285801;22;20023;-88
2023/01/30 14:18:52;;;;;;;11.10;2.28;;;8.50;80.50;;;;;;6312305;22;20046;-92
2023/01/30 14:21:28;;;;;;;8.10;1.58;;;8.40;80.80;;;;;;6263651;22;20019;-92
2023/01/30 14:24:04;;;;;;;12.90;2.55;;;8.40;81.40;;;;;;6288992;22;20007;-91
2023/01/30 14:27:09;;;;;;;15.82;2.88;;;8.50;81.30;;;;;;6313089;22;20022;-92
2023/01/30 14:29:40;;;;;;;12.50;1.73;;;8.50;80.70;;;;;;6288203;22;20018;-92
2023/01/30 14:32:53;;;;;;;9.82;2.03;;;8.50;81.00;;;;;;6288165;22;20023;-92
2023/01/30 14:35:55;;;;;;;9.25;2.25;;;8.60;81.40;;;;;;6290186;22;20026;-90
2023/01/30 14:39:02;;;;;;;10.40;1.80;;;8.60;81.80;;;;;;6310793;22;20022;-91
2023/01/30 14:59:32;;;;;;;13.57;1.42;;;8.50;82.70;;;;;;5901910;24;20020;-90
2023/01/30 15:02:24;;;;;;;;;;;;;;;;;;;;;
2023/01/30 15:05:29;;;;;;;7.53;1.25;;;8.50;82.40;;;;;;5987484;23;20011;-90
2023/01/30 15:08:10;;;;;;;10.57;2.10;;;8.40;82.70;;;;;;5963327;23;20094;-92
2023/01/30 15:10:57;;;;;;;10.48;1.95;;;8.40;82.60;;;;;;6036325;23;20118;-86
2023/01/30 15:13:50;;;;;;;12.27;2.20;;;8.40;82.80;;;;;;6126731;23;20554;-90
2023/01/30 15:20:16;;;;;;;10.27;1.58;;;8.40;82.70;;;;;;6241717;22;20020;-86
2023/01/30 15:23:40;;;;;;;10.27;1.42;;;8.40;83.00;;;;;;6248934;22;20020;-90
2023/01/30 15:26:56;;;;;;;13.13;1.98;;;8.40;83.00;;;;;;6251834;22;20020;-88
2023/01/30 15:30:42;;;;;;;10.95;1.45;;;8.30;82.70;;;;;;6137341;23;20033;-90
2023/01/30 15:33:19;;;;;;;13.13;1.50;;;8.30;83.00;;;;;;6161601;23;20457;-90
2023/01/30 15:39:45;;;;;;;11.82;2.83;;;8.30;83.20;;;;;;6103190;23;20081;-87
2023/01/30 15:51:21;;;;;;;;;;;;;;;;;;;;;
2023/01/30 15:59:11;;;;;;;9.80;1.60;;;8.20;82.90;;;;;;5880659;24;20163;-96
2023/01/30 16:01:37;;;;;;;10.18;1.30;;;8.20;83.00;;;;;;5876921;24;20024;-89
2023/01/30 16:04:24;;;;;;;9.05;1.73;;;8.10;83.30;;;;;;6183146;22;20401;-87
2023/01/30 16:06:54;;;;;;;8.55;1.38;;;8.10;83.30;;;;;;6282035;22;20110;-87
2023/01/30 16:09:23;;;;;;;10.55;1.75;;;8.10;83.60;;;;;;6255557;22;20446;-90
2023/01/30 16:12:26;;;;;;;7.82;1.52;;;8.10;83.90;;;;;;6250690;22;20090;-89
2023/01/30 16:14:57;;;;;;;8.80;1.73;;;8.10;84.20;;;;;;6250465;22;20441;-86
2023/01/30 16:17:57;;;;;;;8.02;1.10;;;8.00;84.30;;;;;;6228028;22;20019;-87
2023/01/30 16:20:53;;;;;;;9.60;1.50;;;8.00;84.30;;;;;;6244468;22;20026;-87
2023/01/30 16:27:39;;;;;;;12.60;1.42;;;8.00;83.80;;;;;;6137187;23;20543;-84
2023/01/30 16:30:08;;;;;;;11.85;1.63;;;7.90;84.30;;;;;;6129428;23;20122;-86
2023/01/30 16:32:37;;;;;;;9.35;1.65;;;7.80;84.40;;;;;;6155262;23;20022;-90
2023/01/30 16:35:34;;;;;;;11.82;2.10;;;7.80;84.80;;;;;;6154703;23;20024;-86
2023/01/30 16:38:27;;;;;;;11.23;1.92;;;7.70;84.40;;;;;;6124337;23;20100;-88
2023/01/30 16:41:04;;;;;;;12.07;2.13;;;7.70;84.70;;;;;;6153510;23;20048;-88
2023/01/30 16:43:37;;;;;;;9.50;1.58;;;7.60;85.10;;;;;;6107922;23;20588;-90
2023/01/30 16:46:40;;;;;;;7.93;2.03;;;7.50;85.30;;;;;;6120436;23;20025;-88
2023/01/30 16:49:16;;;;;;;10.85;1.33;;;7.50;85.60;;;;;;6101439;23;20602;-91
2023/01/30 16:51:46;;;;;;;7.65;1.08;;;7.40;85.90;;;;;;6142387;23;20025;-90
2023/01/30 16:54:34;;;;;;;5.95;1.10;;;7.40;86.10;;;;;;6165039;23;20031;-89
2023/01/30 16:57:02;;;;;;;7.20;0.80;;;7.30;86.40;;;;;;6194867;22;20107;-90
2023/01/30 16:59:40;;;;;;;7.32;1.00;;;7.30;86.60;;;;;;6256653;22;20019;-87
2023/01/30 17:02:41;;;;;;;10.23;2.30;;;7.30;86.90;;;;;;6284545;22;20110;-84
2023/01/30 17:05:21;;;;;;;8.77;1.25;;;7.20;87.20;;;;;;6245577;22;20400;-83
2023/01/30 17:08:39;;;;;;;7.93;1.05;;;7.10;87.50;;;;;;6255946;22;20399;-90
2023/01/30 17:11:34;;;;;;;8.25;1.35;;;7.10;87.70;;;;;;6285233;22;20086;-86
2023/01/30 17:14:13;;;;;;;11.33;1.73;;;7.00;88.30;;;;;;6281493;22;20016;-88
2023/01/30 17:16:41;;;;;;;8.18;1.23;;;7.00;88.50;;;;;;6282111;22;20068;-87
2023/01/30 17:19:09;;;;;;;10.93;1.40;;;6.90;88.60;;;;;;6258149;22;20026;-88
2023/01/30 17:21:50;;;;;;;11.05;1.25;;;6.90;88.80;;;;;;6281445;22;20023;-88
2023/01/30 17:24:20;;;;;;;9.27;1.27;;;7.00;89.00;;;;;;6231322;22;20029;-87
2023/01/30 17:26:58;;;;;;;7.40;1.25;;;7.00;89.00;;;;;;6283224;22;20019;-88
2023/01/30 17:30:13;;;;;;;4.65;0.75;;;7.00;89.10;;;;;;6259200;22;20023;-89
2023/01/30 17:32:40;;;;;;;7.80;1.13;;;7.00;89.10;;;;;;6256123;22;20468;-88
2023/01/30 17:35:11;;;;;;;7.55;1.10;;;7.00;89.30;;;;;;6256013;22;20019;-88
2023/01/30 17:37:38;;;;;;;8.57;1.02;;;6.90;89.30;;;;;;6281548;22;20029;-88
2023/01/30 17:40:32;;;;;;;17.70;1.50;;;6.90;89.60;;;;;;6257013;22;20015;-89
2023/01/30 17:43:00;;;;;;;9.48;2.53;;;6.90;89.90;;;;;;6278441;22;20019;-88
2023/01/30 17:45:30;;;;;;;9.52;1.83;;;6.80;90.00;;;;;;6281037;22;20015;-89
2023/01/30 17:47:58;;;;;;;10.73;2.25;;;6.80;90.10;;;;;;6284100;22;20016;-89
2023/01/30 17:50:27;;;;;;;15.00;3.13;;;6.70;90.10;;;;;;6282034;22;20019;-88
2023/01/30 17:52:54;;;;;;;6.88;1.25;;;6.70;90.20;;;;;;6284044;22;20019;-88
2023/01/30 17:55:22;;;;;;;8.15;1.50;;;6.70;90.40;;;;;;6282475;22;20019;-88
2023/01/30 17:57:52;;;;;;;8.85;1.23;;;6.70;90.40;;;;;;6282763;22;20030;-88
2023/01/30 18:00:31;;;;;;;5.97;0.90;;;6.60;90.40;;;;;;6267501;22;20019;-90
2023/01/30 18:03:06;;;;;;;6.90;1.52;;;6.50;90.50;;;;;;6300508;22;20041;-88
2023/01/30 18:05:34;;;;;;;9.15;1.20;;;6.50;90.60;;;;;;6265263;22;20012;-90
2023/01/30 18:08:02;;;;;;;4.95;0.90;;;6.50;90.70;;;;;;6285845;22;20015;-89
2023/01/30 18:10:29;;;;;;;13.32;1.67;;;6.40;90.70;;;;;;6281330;22;20051;-88
2023/01/30 18:12:56;;;;;;;13.90;1.55;;;6.40;90.70;;;;;;6256519;22;20668;-91
2023/01/30 18:15:29;;;;;;;11.77;1.40;;;6.40;90.60;;;;;;6282928;22;20019;-90
2023/01/30 18:26:28;;;;;;;8.15;1.40;;;6.30;90.70;;;;;;6277424;22;20094;-92
2023/01/30 18:43:07;;;;;;;10.55;1.73;;;6.00;91.30;;;;;;6311126;22;19921;-93
2023/01/30 18:45:42;;;;;;;10.38;1.90;;;6.00;91.40;;;;;;6263915;22;20025;-93
2023/01/30 18:54:27;;;;;;;;;;;;;;;;;;;;;
2023/01/30 18:57:35;;;;;;;11.35;1.33;;;5.90;91.50;;;;;;5978675;23;20103;-91
2023/01/30 19:01:26;;;;;;;15.18;2.08;;;5.90;91.60;;;;;;6129577;22;20024;-96
2023/01/30 19:03:57;;;;;;;9.60;1.45;;;5.90;91.80;;;;;;6231970;22;20020;-87
2023/01/30 19:06:28;;;;;;;11.65;2.33;;;5.90;91.80;;;;;;6226225;22;20099;-90
2023/01/30 19:08:59;;;;;;;11.02;2.50;;;5.90;91.80;;;;;;6228244;22;20374;-94
2023/01/30 19:14:42;;;;;;;8.50;1.38;;;5.80;91.90;;;;;;6253162;22;20442;-91
2023/01/30 19:17:10;;;;;;;10.73;1.73;;;5.80;92.00;;;;;;6229129;22;20019;-94
2023/01/30 19:19:45;;;;;;;5.90;1.30;;;5.70;92.00;;;;;;6229053;22;20441;-91
2023/01/30 19:24:58;;;;;;;9.60;1.33;;;5.60;92.20;;;;;;6221065;23;20534;-90
2023/01/30 19:31:46;;;;;;;7.65;1.17;;;5.60;92.40;;;;;;6157834;23;20076;-92
2023/01/30 19:51:47;;;;;;;;;;;;;;;;;;;;;
2023/01/30 19:58:23;;;;;;;;;;;;;;;;;;;;;
2023/01/30 20:17:57;;;;;;;10.02;1.63;;;5.20;93.10;;;;;;5956629;24;20068;-90
2023/01/30 20:40:20;;;;;;;4.72;1.30;;;5.00;93.40;;;;;;4894743;29;20043;-91
2023/01/30 20:48:11;;;;;;;9.00;1.23;;;5.10;93.40;;;;;;4897223;29;20081;-95
2023/01/30 20:51:22;;;;;;;6.32;1.20;;;5.20;93.40;;;;;;4926724;28;20044;-95
2023/01/30 20:53:59;;;;;;;5.93;1.17;;;5.10;93.40;;;;;;5050907;28;20535;-90
2023/01/30 20:56:41;;;;;;;6.40;1.23;;;5.20;93.50;;;;;;5074461;28;20051;-92
2023/01/30 21:02:51;;;;;;;6.68;1.40;;;5.10;93.60;;;;;;5052521;23;20066;-87
2023/01/30 21:05:19;;;;;;;11.60;1.35;;;5.10;93.80;;;;;;4970172;28;20051;-87
2023/01/30 21:07:46;;;;;;;7.32;1.70;;;5.10;93.60;;;;;;4954425;28;20055;-90
2023/01/30 21:10:19;;;;;;;5.72;1.48;;;5.10;93.70;;;;;;4955263;28;20047;-88
2023/01/30 21:13:00;;;;;;;6.95;1.48;;;5.00;93.70;;;;;;4959949;28;20075;-91
2023/01/30 21:15:30;;;;;;;6.40;1.60;;;5.00;93.80;;;;;;4960819;28;20047;-87
2023/01/30 21:17:58;;;;;;;8.65;1.25;;;5.00;93.90;;;;;;4963706;28;20043;-88
2023/01/30 21:20:25;;;;;;;8.88;1.67;;;4.90;93.90;;;;;;4952571;28;20511;-86
2023/01/30 21:23:01;;;;;;;8.52;1.40;;;5.00;94.00;;;;;;4937759;28;20047;-87
2023/01/30 21:25:38;;;;;;;8.00;2.17;;;5.00;94.00;;;;;;4969722;28;20047;-88
2023/01/30 21:28:06;;;;;;;6.65;1.98;;;5.00;94.10;;;;;;4967041;28;20054;-85
2023/01/30 21:31:26;;;;;;;8.52;1.63;;;4.90;94.00;;;;;;4948420;29;20588;-88
2023/01/30 21:34:35;;;;;;;4.80;1.65;;;4.90;94.10;;;;;;4926360;29;20505;-88
2023/01/30 21:45:31;;;;;;;9.15;2.35;;;4.80;94.30;;;;;;4973011;28;20043;-84
2023/01/30 21:48:01;;;;;;;10.27;1.75;;;4.70;94.30;;;;;;4973277;28;20051;-85
2023/01/30 21:50:31;;;;;;;9.15;1.33;;;4.70;94.40;;;;;;4941653;29;20055;-86
2023/01/30 21:53:00;;;;;;;7.43;1.30;;;4.70;94.40;;;;;;4947964;29;20051;-89
2023/01/30 21:55:30;;;;;;;6.88;1.30;;;4.60;94.40;;;;;;4926468;29;20043;-88
2023/01/30 21:57:57;;;;;;;8.93;1.65;;;4.60;94.50;;;;;;4926007;29;20077;-87
2023/01/30 22:00:24;;;;;;;5.25;1.00;;;4.60;94.60;;;;;;4958319;29;20054;-87
2023/01/30 22:02:51;;;;;;;4.63;1.23;;;4.60;94.60;;;;;;4955539;29;20064;-88
2023/01/30 22:05:19;;;;;;;7.47;1.52;;;4.50;94.60;;;;;;4948545;29;20039;-89
2023/01/30 22:07:46;;;;;;;9.35;1.10;;;4.50;94.60;;;;;;4942248;29;20043;-87
2023/01/30 22:10:13;;;;;;;6.75;1.55;;;4.50;94.70;;;;;;4946435;29;20051;-88
2023/01/30 22:12:42;;;;;;;6.20;1.08;;;4.50;94.70;;;;;;4906869;29;20052;-88
2023/01/30 22:15:20;;;;;;;8.35;1.27;;;4.50;94.70;;;;;;4956960;29;20046;-87
2023/01/30 22:17:48;;;;;;;7.97;1.13;;;4.40;94.80;;;;;;4941223;29;20055;-88
2023/01/30 22:20:16;;;;;;;11.48;1.40;;;4.40;94.80;;;;;;4930449;29;20044;-89
2023/01/30 22:22:43;;;;;;;11.52;1.40;;;4.40;94.80;;;;;;4945611;29;20114;-88
2023/01/30 22:25:16;;;;;;;10.35;1.50;;;4.40;94.80;;;;;;4940487;29;20035;-89
2023/01/30 22:27:44;;;;;;;5.65;0.90;;;4.40;94.80;;;;;;4921727;29;20050;-88
2023/01/30 22:30:18;;;;;;;9.40;1.08;;;4.40;94.80;;;;;;4933004;29;20056;-89
2023/01/30 22:32:51;;;;;;;5.25;1.20;;;4.40;94.90;;;;;;4956438;29;20134;-89
2023/01/30 22:35:18;;;;;;;12.75;1.75;;;4.40;94.90;;;;;;4938724;29;20151;-88
2023/01/30 22:37:46;;;;;;;7.63;1.50;;;4.30;94.90;;;;;;4941137;29;20401;-88
2023/01/30 22:40:55;;;;;;;6.25;1.60;;;4.30;94.90;;;;;;4916557;29;20051;-91
2023/01/30 22:43:24;;;;;;;4.22;0.93;;;4.30;94.90;;;;;;4939575;29;20082;-87
2023/01/30 22:46:01;;;;;;;5.25;1.38;;;4.30;95.00;;;;;;4924713;29;20074;-86
2023/01/30 22:48:29;;;;;;;4.53;1.02;;;4.20;95.00;;;;;;4955253;29;20043;-85
2023/01/30 22:51:17;;;;;;;7.35;1.10;;;4.20;95.00;;;;;;4938637;29;20098;-85
2023/01/30 22:53:49;;;;;;;7.95;1.20;;;4.20;95.00;;;;;;4940084;29;20417;-85
2023/01/30 22:56:19;;;;;;;7.18;1.50;;;4.20;95.10;;;;;;4956245;29;20074;-89
2023/01/30 22:58:47;;;;;;;6.93;0.88;;;4.20;95.00;;;;;;4956192;29;20051;-89
2023/01/30 23:01:26;;;;;;;5.03;0.85;;;4.20;95.00;;;;;;4940178;29;20051;-89
2023/01/30 23:07:43;;;;;;;7.30;1.10;;;4.20;95.10;;;;;;4930063;29;20043;-90
2023/01/30 23:10:13;;;;;;;8.38;1.35;;;4.20;95.10;;;;;;4956317;29;20053;-90
2023/01/30 23:15:34;;;;;;;8.18;0.90;;;4.20;95.10;;;;;;4955791;29;20055;-89
2023/01/30 23:20:59;;;;;;;5.88;1.25;;;4.20;95.20;;;;;;4956071;29;20058;-90
2023/01/30 23:23:26;;;;;;;6.05;1.02;;;4.20;95.10;;;;;;4936323;29;20044;-86
2023/01/30 23:25:55;;;;;;;7.70;1.30;;;4.20;95.20;;;;;;4936477;29;20447;-86
2023/01/30 23:28:42;;;;;;;5.47;0.90;;;4.10;95.20;;;;;;4936763;29;20052;-90
2023/01/30 23:31:36;;;;;;;5.53;0.60;;;4.10;95.30;;;;;;4936922;29;20134;-90
2023/01/30 23:34:15;;;;;;;5.38;0.60;;;4.00;95.30;;;;;;4904411;29;20065;-91
2023/01/30 23:36:46;;;;;;;6.40;1.02;;;4.00;95.40;;;;;;4939128;29;20051;-91
2023/01/30 23:39:13;;;;;;;3.72;0.40;;;4.00;95.50;;;;;;4955216;29;20142;-89
2023/01/30 23:41:41;;;;;;;2.72;0.40;;;3.90;95.50;;;;;;4911145;29;20111;-91
2023/01/30 23:44:09;;;;;;;4.00;0.68;;;3.90;95.50;;;;;;4952175;29;20039;-88
2023/01/30 23:46:41;;;;;;;4.78;0.82;;;4.00;95.60;;;;;;4920499;29;20126;-86
2023/01/30 23:49:13;;;;;;;4.68;0.73;;;4.00;95.50;;;;;;4920502;29;20111;-90
2023/01/30 23:51:43;;;;;;;2.58;0.50;;;4.00;95.50;;;;;;4951967;29;20055;-90
2023/01/30 23:54:15;;;;;;;2.08;0.50;;;4.00;95.50;;;;;;4921187;29;20513;-90
2023/01/30 23:56:54;;;;;;;2.67;0.70;;;3.90;95.50;;;;;;4921297;29;20044;-90